본문 바로가기
출처링크 : https://asia.nikkei.com/Business/Compani...h-IBM-win2 

ibm.jpg

 

글로벌 파운드리가 7nm 공정의 개발을 포기했습니다. 글로벌 파운드리 하면 AMD CPU를 먼저 생각하겠으나, 사실 GF는 IBM의 생산 라인과 기술 상당수를 양도받은 회사이며, 양도와 함께 IBM Power 프로세서를 생산하기로 했습니다. 

 

IBM은 이제 다른 공급선을 찾을 수밖에 없는데, 그 후보야 뻔하죠 뭐. TSMC에서 생산한다고 합니다. 삼성이요? 삼성은 엑시노스 9820도 7nm LPP를 쓰지 못해 10nm를 개선한 8nm 공정으로 생산하고 있습니다. 

List of Articles
번호 제목 글쓴이 날짜 조회 수
702 잡담 라이젠 1700 vs 2700 무엇을 사야할까 고민된다면 이글 읽어보시길 회원_98591848 2018-12-11 8
701 정보 차세대 APU를 위한 ASUS 크로스헤어 VI 임팩트 메인보드? file 회원_25909806 2018-12-11 2
700 일반 새로운 스펙터 변종 "Split Spectre"발견 file 회원_31833693 2018-12-06 8
699 정보 커피레이크-S용 Thin 미니 ITX 메인보드. ECS H310CH5-TI file 회원_74778370 2018-12-06 7
698 정보 중국 회사가 PCM에 투자, 2021년에는 3D XPoint 칩을 출시 file 회원_75588700 2018-12-06 6
697 정보 F1 2018의 다이렉트 X 12 지원 추가. AMD 성능 향상 file 회원_01787561 2018-12-01 6
696 일반 AMD 200GE 오버클럭 지원 되는듯 회원_66550997 2018-12-01 12
695 잡담 GTX 1060 GDDR5X은 왜 나왔는가? 회원_35757791 2018-11-28 11
694 인텔 9세대 모바일 프로세서는 위스키레이크 리네이밍? file 회원_79015949 2018-11-28 6
693 정보 인텔, 또 14nm. 10코어 코멧 레이크 회원_31134771 2018-11-28 11
692 정보 AMD Zen3에 7nm EUV 공정 사용. 성능 향상은 크지 않음 회원_20592183 2018-11-28 5
691 인텔, 22nm 공정으로 B365 칩셋을 내년 1분기에 나온다? [루머] file 회원_47742791 2018-11-28 5
690 정보 인텔 8코어 제온 E-2100 샘플 file 회원_03764744 2018-11-28 4
689 정보 삼성 QLC SSD. 860 QVO 발표 file 회원_46728638 2018-11-28 17
688 정보 Cadence, GDDR6 IP를 삼성 7LPP EUV로 테이프 아웃 file 회원_07353019 2018-11-28 7
687 정보 중국 Loongson CPU의 성능. 다음엔 인텔 프로세서 수준? file 회원_12654016 2018-11-28 5
686 정보 낸드의 10배, 옵테인의 2배 속도. MRAM SSD file 회원_30249558 2018-11-28 14
» 정보 GF 7nm 포기 후, IBM Power를 TSMC가 생산 file 회원_73365386 2018-11-20 15
684 정보 지포스 RTX 2060이 생각보다 빨리 나온다? [2] 회원_48563149 2018-11-20 44
683 정보 캐스케이드 레이크 X, 별로 큰 변화는 없음 file 회원_42943307 2018-11-20 12
682 잡담 별 관심없으실 듯한 9900k 국내 벤치 file 회원_80805223 2018-11-18 19
681 정보 윈도우10 레드스톤5 1809 11월14일 오전3시 재배포 회원_59350420 2018-11-18 21
680 정보 윈도우10 19H1 1903 릴리스 2019년 4월예정 회원_85770638 2018-11-18 4
679 정보 윈도우 업데이트팩 18.11.15 최신버전 한방에 설치하기 회원_28665110 2018-11-16 32
678 정보 2018년 전세계 슈퍼컴퓨터 성능 순위 file 회원_00618475 2018-11-13 25
서버에 요청 중입니다. 잠시만 기다려 주십시오...